Unionville, New York
Current Conditions -  °F | °C
As of 6:53 PM on Sunday 21 Dec 2014 (Local Time) from KFWN Reporting Station
Overcast Overcast  
Wind Chill: -2°   Ceiling: 2300
Heat Index:   Visibility: 10mi
Dew Point: -3°   Wind: 6mph
Humidity: 78%   Direction: 20°NNE
Pressure: 30.32"   Gusts: NA
Location:  41.3°N, 74.56°W
Report Text: KFWN 212353Z AUTO 02005KT 10SM OVC023 01/M03 A3032 RMK AO2 SLP273 T00061028 10017 20000 53015
Loading
Personal Weather Stations






























Interactive Weather Map New forecast layout! Learn more

10-Day Weather Forecast

Advertisements
Track Severe Weather on mobile